Time;durP1;ratioP1;P1;durP2;ratioP2;P2;SDS_P1;SDS_P2;PMS_P1;PMS_P2;Temp;Humidity;BMP_temperature;BMP_pressure;BME280_temperature;BME280_humidity;BME280_pressure;Samples;Min_cycle;Max_cycle;Signal;HPM_P1;HPM_P2
2022/10/28 00:00:50;;;;;;;24.23;10.18;;;;;;;13.44;100.00;101582.59;5042639;28;20061;-67
2022/10/28 00:03:16;;;;;;;23.92;10.00;;;;;;;13.45;100.00;101575.50;5043781;28;20032;-67
2022/10/28 00:05:41;;;;;;;22.55;9.60;;;;;;;13.35;100.00;101579.88;5041995;28;20026;-67
2022/10/28 00:08:07;;;;;;;23.45;10.25;;;;;;;13.34;100.00;101572.75;5044688;28;20384;-67
2022/10/28 00:10:33;;;;;;;24.85;10.18;;;;;;;13.24;100.00;101586.00;5039925;28;20029;-66
2022/10/28 00:12:58;;;;;;;24.52;10.13;;;;;;;13.16;100.00;101577.09;5043899;28;20148;-66
2022/10/28 00:15:24;;;;;;;22.40;10.25;;;;;;;13.10;100.00;101574.44;5042395;28;20426;-67
2022/10/28 00:17:49;;;;;;;23.17;9.93;;;;;;;13.01;100.00;101569.94;5042397;28;20029;-67
2022/10/28 00:20:14;;;;;;;27.17;12.18;;;;;;;13.05;100.00;101574.41;5043769;28;20028;-66
2022/10/28 00:22:40;;;;;;;26.52;11.27;;;;;;;13.00;100.00;101567.28;5040692;28;20036;-66
2022/10/28 00:25:06;;;;;;;25.00;10.88;;;;;;;12.93;100.00;101570.78;5044644;28;20028;-66
2022/10/28 00:27:32;;;;;;;25.58;11.05;;;;;;;12.91;100.00;101569.00;5041398;28;20022;-67
2022/10/28 00:29:57;;;;;;;24.30;10.63;;;;;;;12.90;100.00;101575.22;5043254;28;20079;-67
2022/10/28 00:32:23;;;;;;;23.98;10.60;;;;;;;12.83;100.00;101572.47;5042594;28;20029;-66
2022/10/28 00:34:48;;;;;;;24.50;10.40;;;;;;;12.80;100.00;101573.38;5042222;28;20026;-67
2022/10/28 00:37:13;;;;;;;26.17;10.98;;;;;;;12.83;100.00;101564.53;5043716;28;20561;-67
2022/10/28 00:39:38;;;;;;;24.00;10.95;;;;;;;12.75;100.00;101567.13;5040997;28;20140;-66
2022/10/28 00:42:06;;;;;;;23.40;10.23;;;;;;;12.71;100.00;101560.94;5044370;28;20056;-67
2022/10/28 00:45:00;;;;;;;25.30;10.70;;;;;;;12.68;100.00;101567.97;5041153;28;20491;-67
2022/10/28 00:47:36;;;;;;;25.52;11.45;;;;;;;12.66;100.00;101559.13;5041824;28;20060;-66
2022/10/28 00:50:38;;;;;;;26.15;10.82;;;;;;;12.64;100.00;101563.50;5040012;28;20041;-67
2022/10/28 00:53:16;;;;;;;24.67;10.95;;;;;;;12.62;100.00;101555.53;5043400;28;20037;-67
2022/10/28 00:55:43;;;;;;;23.92;11.15;;;;;;;12.59;100.00;101552.00;5037884;28;20042;-67
2022/10/28 00:58:09;;;;;;;23.65;11.05;;;;;;;12.55;100.00;101544.03;5044394;28;20025;-66
2022/10/28 01:00:35;;;;;;;24.17;10.02;;;;;;;12.47;100.00;101548.38;5036642;28;20026;-67
2022/10/28 01:03:00;;;;;;;23.27;10.07;;;;;;;12.45;100.00;101535.97;5043358;28;20075;-67
2022/10/28 01:05:28;;;;;;;25.15;10.48;;;;;;;12.37;100.00;101530.63;5041890;28;20033;-67
2022/10/28 01:07:59;;;;;;;23.30;10.38;;;;;;;12.34;100.00;101533.25;5042953;28;20034;-67
2022/10/28 01:10:44;;;;;;;23.88;10.70;;;;;;;12.33;100.00;101534.13;5041780;28;20021;-67
2022/10/28 01:13:37;;;;;;;23.63;10.23;;;;;;;12.30;100.00;101528.78;5037095;28;20037;-66
2022/10/28 01:16:05;;;;;;;;;;;;;;;12.29;100.00;101521.69;5042729;28;20033;-67
2022/10/28 01:18:39;;;;;;;24.33;10.60;;;;;;;12.27;100.00;101529.66;5040891;28;20015;-67
2022/10/28 01:21:20;;;;;;;23.67;9.55;;;;;;;12.15;100.00;101530.44;5036305;28;20034;-66
2022/10/28 01:23:58;;;;;;;23.75;9.85;;;;;;;12.20;100.00;101523.44;5038439;28;20030;-66
2022/10/28 01:26:43;;;;;;;23.40;9.75;;;;;;;12.15;100.00;101525.13;5041835;28;20025;-67
2022/10/28 01:29:40;;;;;;;23.70;10.07;;;;;;;12.10;100.00;101521.56;5037212;28;20056;-67
2022/10/28 01:32:32;;;;;;;28.27;10.13;;;;;;;12.07;100.00;101524.16;5040625;28;20026;-66
2022/10/28 01:35:12;;;;;;;21.88;8.45;;;;;;;12.05;100.00;101512.69;5042657;28;20026;-67
2022/10/28 01:37:55;;;;;;;26.27;8.73;;;;;;;12.02;100.00;101518.84;5040264;28;20021;-67
2022/10/28 01:40:50;;;;;;;21.58;8.93;;;;;;;12.02;100.00;101515.31;5043261;28;20495;-67
2022/10/28 01:43:49;;;;;;;24.02;9.85;;;;;;;11.97;100.00;101519.66;5042040;28;20065;-67
2022/10/28 01:46:20;;;;;;;24.40;9.60;;;;;;;11.91;100.00;101512.53;5022275;28;20128;-67
2022/10/28 01:48:57;;;;;;;22.90;9.50;;;;;;;11.89;100.00;101516.03;5008012;28;20034;-67
2022/10/28 01:51:36;;;;;;;22.80;10.50;;;;;;;11.89;100.00;101510.75;5023334;28;20085;-67
2022/10/28 01:54:06;;;;;;;24.63;10.77;;;;;;;11.88;100.00;101511.59;5021902;28;20057;-67
2022/10/28 01:56:36;;;;;;;23.08;9.98;;;;;;;11.82;100.00;101505.38;5024685;28;20463;-66
2022/10/28 01:59:06;;;;;;;21.95;9.20;;;;;;;11.77;100.00;101512.38;5022000;28;20034;-67
2022/10/28 02:01:32;;;;;;;22.35;10.65;;;;;;;11.83;100.00;101506.25;5024419;28;20120;-67
2022/10/28 02:03:58;;;;;;;23.25;9.75;;;;;;;11.78;100.00;101508.88;5022580;28;20392;-67
2022/10/28 02:06:27;;;;;;;22.67;9.80;;;;;;;11.75;100.00;101508.84;5023147;28;20072;-67
2022/10/28 02:09:18;;;;;;;22.83;9.20;;;;;;;11.71;100.00;101507.03;5023161;28;20033;-67
2022/10/28 02:11:52;;;;;;;24.70;9.50;;;;;;;11.73;100.00;101504.41;5021789;28;20041;-67
2022/10/28 02:14:37;;;;;;;22.70;9.20;;;;;;;11.73;100.00;101499.09;5007253;28;20507;-67
2022/10/28 02:17:47;;;;;;;20.60;8.13;;;;;;;11.68;100.00;101501.72;5024155;28;20049;-67
2022/10/28 02:20:40;;;;;;;23.50;9.80;;;;;;;11.63;100.00;101501.63;4940538;29;20495;-67
2022/10/28 02:23:28;;;;;;;26.20;9.27;;;;;;;11.57;100.00;101503.34;4966718;28;20096;-67
2022/10/28 02:26:20;;;;;;;22.75;8.90;;;;;;;11.50;100.00;101513.88;4983835;28;20059;-67
2022/10/28 02:28:54;;;;;;;22.73;9.13;;;;;;;11.54;100.00;101496.25;4983015;28;20042;-67
2022/10/28 02:31:29;;;;;;;22.02;9.07;;;;;;;11.48;100.00;101499.72;4984108;28;20038;-67
2022/10/28 02:34:01;;;;;;;23.35;9.38;;;;;;;11.54;100.00;101500.69;4983564;28;20477;-67
2022/10/28 02:36:30;;;;;;;22.77;10.25;;;;;;;11.61;100.00;101499.88;4982998;28;20038;-67
2022/10/28 02:38:57;;;;;;;20.23;8.80;;;;;;;11.54;100.00;101490.09;4983722;28;20391;-67
2022/10/28 02:41:55;;;;;;;21.73;9.20;;;;;;;11.54;100.00;101490.97;4983503;28;20488;-68
2022/10/28 02:44:28;;;;;;;22.15;8.50;;;;;;;11.59;100.00;101491.00;4983808;28;20042;-67
2022/10/28 02:46:58;;;;;;;22.02;9.68;;;;;;;11.63;100.00;101503.41;4983145;28;20027;-67
2022/10/28 02:49:25;;;;;;;22.15;8.68;;;;;;;11.62;100.00;101497.25;4983002;28;20049;-67
2022/10/28 02:51:56;;;;;;;23.42;8.57;;;;;;;11.61;100.00;101492.81;4982743;28;20034;-67
2022/10/28 02:54:31;;;;;;;23.63;8.82;;;;;;;11.84;100.00;101500.09;4983175;28;20100;-67
2022/10/28 02:57:05;;;;;;;23.83;8.90;;;;;;;11.91;100.00;101495.72;5017640;28;20071;-67
2022/10/28 02:59:31;;;;;;;23.00;8.80;;;;;;;11.90;100.00;101491.28;5040824;28;20037;-67
2022/10/28 03:01:56;;;;;;;23.13;8.07;;;;;;;11.84;100.00;101487.72;5042451;28;20084;-67
2022/10/28 03:04:21;;;;;;;26.25;8.73;;;;;;;11.85;100.00;101488.63;5042274;28;20029;-67
2022/10/28 03:06:47;;;;;;;24.17;8.95;;;;;;;11.85;100.00;101484.22;5040979;28;20039;-67
2022/10/28 03:09:12;;;;;;;23.75;8.38;;;;;;;11.95;100.00;101487.84;5043283;28;20049;-67
2022/10/28 03:11:37;;;;;;;23.45;8.45;;;;;;;11.83;100.00;101490.38;5040219;28;20080;-67
2022/10/28 03:14:03;;;;;;;22.95;8.45;;;;;;;11.75;100.00;101487.66;5042964;28;20128;-67
2022/10/28 03:16:28;;;;;;;22.70;8.20;;;;;;;11.77;100.00;101485.03;5040945;28;20036;-65
2022/10/28 03:18:53;;;;;;;24.23;8.30;;;;;;;11.95;100.00;101479.03;5041775;28;20030;-65
2022/10/28 03:21:19;;;;;;;22.67;7.95;;;;;;;11.91;100.00;101485.13;5043402;28;20055;-65
2022/10/28 03:23:44;;;;;;;22.77;8.45;;;;;;;12.01;100.00;101489.66;5042524;28;20025;-65
2022/10/28 03:26:09;;;;;;;24.08;8.13;;;;;;;11.92;100.00;101478.97;5045329;28;20155;-65
2022/10/28 03:28:35;;;;;;;22.08;7.60;;;;;;;11.79;100.00;101484.13;5042120;28;20017;-65
2022/10/28 03:31:00;;;;;;;24.65;8.18;;;;;;;11.84;100.00;101482.44;5044700;28;20469;-65
2022/10/28 03:33:25;;;;;;;23.83;8.27;;;;;;;12.02;100.00;101486.16;5043201;28;20021;-65
2022/10/28 03:35:51;;;;;;;23.95;8.40;;;;;;;12.16;100.00;101484.50;5043078;28;20076;-65
2022/10/28 03:38:16;;;;;;;23.13;8.07;;;;;;;12.35;100.00;101484.66;5044645;28;20033;-65
2022/10/28 03:40:41;;;;;;;23.45;7.60;;;;;;;12.41;100.00;101487.34;5041496;28;20072;-64
2022/10/28 03:43:07;;;;;;;22.27;7.85;;;;;;;12.42;100.00;101489.13;5044958;28;20096;-66
2022/10/28 03:45:32;;;;;;;23.48;8.00;;;;;;;12.35;100.00;101484.66;5042288;28;20055;-65
2022/10/28 03:47:57;;;;;;;22.25;7.75;;;;;;;12.42;100.00;101481.19;5043947;28;20031;-66
2022/10/28 03:50:24;;;;;;;22.65;7.45;;;;;;;12.38;100.00;101484.69;5043312;28;20032;-66
2022/10/28 03:52:49;;;;;;;22.75;7.50;;;;;;;12.45;100.00;101473.25;5042644;28;20057;-65
2022/10/28 03:55:14;;;;;;;21.55;7.18;;;;;;;12.40;100.00;101477.63;5044384;28;20155;-65
2022/10/28 03:57:39;;;;;;;23.67;7.35;;;;;;;12.36;100.00;101482.03;5040786;28;20036;-65
2022/10/28 04:00:05;;;;;;;22.92;7.47;;;;;;;12.40;100.00;101477.63;5044516;28;20036;-65
2022/10/28 04:02:31;;;;;;;24.00;7.53;;;;;;;12.41;100.00;101479.41;5042223;28;20032;-66
2022/10/28 04:04:56;;;;;;;24.63;7.80;;;;;;;12.54;100.00;101472.41;5043588;28;20033;-65
2022/10/28 04:07:22;;;;;;;22.88;7.55;;;;;;;12.64;100.00;101483.94;5043437;28;20460;-65
2022/10/28 04:09:50;;;;;;;23.38;7.65;;;;;;;12.71;100.00;101472.50;5041881;28;20479;-65
2022/10/28 04:12:16;;;;;;;23.85;7.85;;;;;;;12.77;100.00;101472.53;5044026;28;20553;-64
2022/10/28 04:14:41;;;;;;;25.90;7.88;;;;;;;12.89;100.00;101472.59;5041069;28;20476;-65
2022/10/28 04:17:06;;;;;;;23.83;7.50;;;;;;;12.99;100.00;101477.94;5037269;28;20028;-66
2022/10/28 04:19:32;;;;;;;22.50;7.18;;;;;;;13.07;100.00;101481.50;5044069;28;20025;-65
2022/10/28 04:21:57;;;;;;;22.02;7.22;;;;;;;13.19;100.00;101480.66;5042221;28;20027;-65
2022/10/28 04:24:22;;;;;;;25.13;7.60;;;;;;;13.29;100.00;101484.25;5042452;28;20025;-66
2022/10/28 04:26:48;;;;;;;23.40;7.35;;;;;;;13.37;100.00;101479.91;5043601;28;20016;-65
2022/10/28 04:29:13;;;;;;;23.27;7.28;;;;;;;13.49;100.00;101481.69;5040924;28;20099;-65
2022/10/28 04:31:38;;;;;;;24.90;7.88;;;;;;;13.44;100.00;101476.38;5044323;28;20093;-65
2022/10/28 04:34:04;;;;;;;23.17;7.55;;;;;;;13.40;100.00;101485.22;5041459;28;20025;-66
2022/10/28 04:36:29;;;;;;;21.75;6.88;;;;;;;13.50;100.00;101486.09;5043208;28;20029;-66
2022/10/28 04:38:54;;;;;;;23.38;7.00;;;;;;;13.50;100.00;101476.38;5042945;28;20052;-66
2022/10/28 04:41:19;;;;;;;23.05;7.25;;;;;;;13.51;100.00;101480.78;5041764;28;20455;-67
2022/10/28 04:43:45;;;;;;;22.80;7.18;;;;;;;13.52;100.00;101479.91;5043681;28;20025;-67
2022/10/28 04:46:10;;;;;;;23.80;6.60;;;;;;;13.46;100.00;101474.59;5040871;28;20433;-67
2022/10/28 04:48:35;;;;;;;22.35;7.10;;;;;;;13.34;100.00;101478.13;5043933;28;20031;-67
2022/10/28 04:51:01;;;;;;;23.63;7.45;;;;;;;13.25;100.00;101470.97;5041442;28;20029;-67
2022/10/28 04:53:26;;;;;;;23.02;7.55;;;;;;;13.25;100.00;101475.38;5042682;28;20045;-67
2022/10/28 04:55:58;;;;;;;25.67;7.40;;;;;;;13.24;100.00;101477.16;5042991;28;20372;-67
2022/10/28 04:58:25;;;;;;;24.17;7.10;;;;;;;13.23;100.00;101469.19;5042244;28;20381;-67
2022/10/28 05:00:50;;;;;;;24.35;7.30;;;;;;;13.20;100.00;101474.50;5043324;28;20367;-67
2022/10/28 05:03:15;;;;;;;22.05;7.10;;;;;;;13.18;100.00;101468.31;5041058;28;20028;-67
2022/10/28 05:05:41;;;;;;;24.88;7.47;;;;;;;13.21;100.00;101463.88;5044040;28;20598;-66
2022/10/28 05:08:06;;;;;;;23.38;7.40;;;;;;;13.20;100.00;101472.72;5039564;28;20053;-67
2022/10/28 05:10:31;;;;;;;24.90;7.50;;;;;;;13.20;100.00;101469.19;5046620;28;20026;-66
2022/10/28 05:12:57;;;;;;;25.02;7.40;;;;;;;13.13;100.00;101478.88;5046145;28;20068;-67
2022/10/28 05:15:23;;;;;;;24.23;7.18;;;;;;;13.00;100.00;101480.59;5046025;28;20372;-68
2022/10/28 05:17:49;;;;;;;24.33;7.22;;;;;;;12.95;100.00;101486.78;5047101;28;20021;-67
2022/10/28 05:20:16;;;;;;;24.23;7.70;;;;;;;12.93;100.00;101483.22;5044321;28;20465;-66
2022/10/28 05:22:46;;;;;;;24.35;7.60;;;;;;;12.91;100.00;101484.09;5047862;28;20130;-66
2022/10/28 05:25:12;;;;;;;22.63;7.70;;;;;;;12.97;100.00;101474.41;5040748;28;20113;-66
2022/10/28 05:27:37;;;;;;;25.13;7.60;;;;;;;13.02;100.00;101473.53;5046310;28;20029;-66
2022/10/28 05:30:03;;;;;;;25.58;7.50;;;;;;;13.11;100.00;101462.06;5044867;28;20037;-65
2022/10/28 05:32:28;;;;;;;24.02;7.53;;;;;;;13.18;100.00;101466.53;5046419;28;20033;-65
2022/10/28 05:34:53;;;;;;;22.92;7.00;;;;;;;13.17;100.00;101467.41;5044844;28;20037;-65
2022/10/28 05:37:19;;;;;;;22.30;7.28;;;;;;;13.16;100.00;101462.97;5039890;28;20064;-71
2022/10/28 05:39:44;;;;;;;21.95;7.32;;;;;;;13.10;100.00;101460.28;5035264;28;20408;-69
2022/10/28 05:42:09;;;;;;;23.75;7.38;;;;;;;13.11;100.00;101467.38;5039496;28;20040;-70
2022/10/28 05:44:34;;;;;;;23.48;7.57;;;;;;;13.07;100.00;101462.94;5033104;28;20033;-67
2022/10/28 05:47:00;;;;;;;22.42;7.70;;;;;;;13.04;100.00;101462.94;5036863;28;20096;-62
2022/10/28 05:49:25;;;;;;;24.23;7.30;;;;;;;12.99;100.00;101469.97;5036212;28;20495;-61
2022/10/28 05:51:50;;;;;;;24.13;7.78;;;;;;;13.03;100.00;101464.72;5039403;28;20033;-63
2022/10/28 05:54:16;;;;;;;25.08;7.70;;;;;;;13.02;100.00;101462.94;5039286;28;20073;-62
2022/10/28 05:56:41;;;;;;;24.23;7.40;;;;;;;12.97;100.00;101458.47;5045850;28;20029;-62
2022/10/28 05:59:06;;;;;;;23.35;7.53;;;;;;;12.87;100.00;101463.75;5049629;28;20119;-62
2022/10/28 06:01:32;;;;;;;25.83;7.85;;;;;;;12.87;100.00;101463.75;5049456;28;20491;-61
2022/10/28 06:03:57;;;;;;;23.27;7.82;;;;;;;12.86;100.00;101463.75;5045986;28;20072;-61
2022/10/28 06:06:22;;;;;;;24.88;7.80;;;;;;;12.82;100.00;101462.81;5045178;28;20044;-62
2022/10/28 06:08:47;;;;;;;25.20;7.85;;;;;;;12.83;100.00;101469.00;5043805;28;20021;-61
2022/10/28 06:11:13;;;;;;;23.27;7.80;;;;;;;12.80;100.00;101464.59;5047869;28;20110;-61
2022/10/28 06:13:38;;;;;;;25.33;7.95;;;;;;;12.77;100.00;101466.34;5047769;28;20523;-60
2022/10/28 06:16:04;;;;;;;25.00;8.25;;;;;;;12.73;100.00;101468.97;5047661;28;20030;-62
2022/10/28 06:18:29;;;;;;;24.50;8.02;;;;;;;12.75;100.00;101471.63;5047141;28;20152;-62
2022/10/28 06:20:57;;;;;;;23.67;7.90;;;;;;;12.79;100.00;101478.72;5046696;28;20033;-62
2022/10/28 06:23:23;;;;;;;25.67;8.15;;;;;;;12.75;100.00;101479.59;5047424;28;20037;-62
2022/10/28 06:25:49;;;;;;;25.67;8.32;;;;;;;12.78;100.00;101479.59;5046577;28;20034;-62
2022/10/28 06:28:15;;;;;;;24.40;8.13;;;;;;;12.80;100.00;101480.53;5043923;28;20079;-61
2022/10/28 06:30:41;;;;;;;24.10;8.60;;;;;;;12.77;100.00;101475.19;5047463;28;20540;-63
2022/10/28 06:33:06;;;;;;;24.35;8.20;;;;;;;12.76;100.00;101485.81;5038269;28;20377;-63
2022/10/28 06:35:31;;;;;;;22.83;8.25;;;;;;;12.78;100.00;101474.28;5043083;28;20041;-64
2022/10/28 06:37:57;;;;;;;26.73;8.40;;;;;;;12.81;100.00;101484.03;5038146;28;20048;-67
2022/10/28 06:40:26;;;;;;;23.35;8.32;;;;;;;12.83;100.00;101483.19;5036124;28;20025;-66
2022/10/28 06:42:58;;;;;;;25.27;8.15;;;;;;;12.86;100.00;101475.22;5043104;28;20464;-68
2022/10/28 06:45:23;;;;;;;23.45;8.15;;;;;;;12.80;100.00;101476.97;5045543;28;20039;-70
2022/10/28 06:47:48;;;;;;;24.23;8.13;;;;;;;12.79;100.00;101478.72;5048097;28;20029;-67
2022/10/28 06:50:14;;;;;;;23.75;7.97;;;;;;;12.81;100.00;101476.09;5047132;28;20069;-67
2022/10/28 06:52:39;;;;;;;24.65;8.30;;;;;;;12.78;100.00;101476.94;5040687;28;20067;-66
2022/10/28 06:55:05;;;;;;;23.52;8.40;;;;;;;12.83;100.00;101471.66;5044277;28;20068;-67
2022/10/28 06:57:30;;;;;;;23.52;7.80;;;;;;;12.83;100.00;101464.59;5046447;28;20029;-66
2022/10/28 06:59:55;;;;;;;23.00;7.88;;;;;;;12.88;100.00;101475.25;5045208;28;20033;-66
2022/10/28 07:02:21;;;;;;;22.92;8.10;;;;;;;12.93;100.00;101478.81;5046593;28;20028;-68
2022/10/28 07:04:46;;;;;;;23.67;8.10;;;;;;;12.98;100.00;101479.72;5049488;28;20033;-67
2022/10/28 07:07:11;;;;;;;23.75;7.80;;;;;;;13.04;100.00;101471.75;5040163;28;20021;-67
2022/10/28 07:09:38;;;;;;;23.30;7.72;;;;;;;13.13;100.00;101476.22;5047260;28;20036;-66
2022/10/28 07:12:05;;;;;;;25.30;7.80;;;;;;;13.19;100.00;101476.28;5045076;28;20111;-66
2022/10/28 07:14:33;;;;;;;23.95;7.90;;;;;;;13.31;100.00;101472.75;5047917;28;20021;-67
2022/10/28 07:16:59;;;;;;;23.13;8.05;;;;;;;13.45;100.00;101470.16;5039332;28;20029;-67
2022/10/28 07:19:24;;;;;;;25.10;8.25;;;;;;;13.64;100.00;101473.75;5048978;28;20092;-66
2022/10/28 07:21:49;;;;;;;23.08;8.10;;;;;;;13.79;100.00;101472.91;5046592;28;20480;-66
2022/10/28 07:24:14;;;;;;;23.45;7.80;;;;;;;13.91;100.00;101480.88;5048873;28;20033;-67
2022/10/28 07:26:40;;;;;;;24.95;8.07;;;;;;;14.08;100.00;101486.19;5047917;28;20032;-66
2022/10/28 07:29:05;;;;;;;26.00;8.07;;;;;;;14.22;100.00;101494.16;5044435;28;20068;-66
2022/10/28 07:31:30;;;;;;;22.25;7.57;;;;;;;14.37;100.00;101493.28;5043447;28;20043;-66
2022/10/28 07:33:56;;;;;;;23.08;7.57;;;;;;;14.51;100.00;101498.56;5042056;28;20053;-66
2022/10/28 07:36:21;;;;;;;25.27;8.15;;;;;;;14.63;100.00;101495.94;5044979;28;20021;-66
2022/10/28 07:38:51;;;;;;;25.77;7.30;;;;;;;14.79;100.00;101502.09;5041752;28;20024;-66
2022/10/28 07:41:18;;;;;;;24.25;7.25;;;;;;;14.95;100.00;101502.03;5037812;28;20078;-66
2022/10/28 07:43:43;;;;;;;26.20;7.60;;;;;;;15.11;100.00;101497.53;5045007;28;20032;-66
2022/10/28 07:46:09;;;;;;;26.30;7.47;;;;;;;15.28;100.00;101490.38;5042038;28;20037;-66
2022/10/28 07:48:35;;;;;;;24.27;7.80;;;;;;;15.45;100.00;101498.28;5043893;28;20028;-66
2022/10/28 07:51:03;;;;;;;24.88;7.55;;;;;;;15.60;100.00;101483.97;5043196;28;20384;-66
2022/10/28 07:53:28;;;;;;;23.30;7.07;;;;;;;15.79;100.00;101481.22;5042755;28;20187;-66
2022/10/28 07:55:59;;;;;;;23.40;6.97;;;;;;;15.94;100.00;101474.88;5044219;28;20475;-66
2022/10/28 07:58:25;;;;;;;23.67;7.38;;;;;;;16.06;100.00;101468.56;5041933;28;20025;-67
2022/10/28 08:00:50;;;;;;;22.92;6.88;;;;;;;16.25;100.00;101474.63;5044627;28;20029;-66
2022/10/28 08:03:15;;;;;;;22.35;6.70;;;;;;;16.40;100.00;101477.16;5040000;28;20527;-66
2022/10/28 08:05:41;;;;;;;25.48;7.03;;;;;;;16.55;100.00;101489.44;5044288;28;20024;-66
2022/10/28 08:08:06;;;;;;;23.90;7.20;;;;;;;16.66;100.00;101490.22;5042129;28;20033;-66
2022/10/28 08:10:31;;;;;;;22.15;6.65;;;;;;;16.77;100.00;101483.88;5043115;28;20025;-66
2022/10/28 08:12:57;;;;;;;24.60;6.65;;;;;;;16.88;100.00;101490.03;5043355;28;20032;-66
2022/10/28 08:15:23;;;;;;;23.85;6.45;;;;;;;17.00;100.00;101494.31;5041865;28;20072;-66
2022/10/28 08:17:52;;;;;;;23.42;6.53;;;;;;;17.08;100.00;101500.44;5044457;28;20523;-66
2022/10/28 08:20:18;;;;;;;23.45;6.78;;;;;;;17.09;100.00;101515.56;5040912;28;20025;-66
2022/10/28 08:22:43;;;;;;;23.80;7.13;;;;;;;17.11;100.00;101515.56;5037098;28;20120;-65
2022/10/28 08:25:09;;;;;;;21.92;7.13;;;;;;;17.10;100.00;101509.34;5043955;28;20112;-65
2022/10/28 08:27:34;;;;;;;24.13;6.60;;;;;;;17.09;100.00;101507.56;5042234;28;20056;-65
2022/10/28 08:29:59;;;;;;;22.65;6.68;;;;;;;17.08;100.00;101512.03;5042432;28;20021;-65
2022/10/28 08:32:25;;;;;;;21.88;6.40;;;;;;;17.11;100.00;101507.53;5043564;28;20104;-66
2022/10/28 08:34:50;;;;;;;21.90;7.00;;;;;;;17.08;100.00;101506.69;5041241;28;20021;-65
2022/10/28 08:37:15;;;;;;;23.90;6.93;;;;;;;17.14;100.00;101504.81;5044473;28;20028;-66
2022/10/28 08:39:41;;;;;;;22.77;6.97;;;;;;;17.21;100.00;101511.84;5040946;28;20057;-66
2022/10/28 08:42:40;;;;;;;23.92;6.70;;;;;;;17.34;100.00;101508.13;5043247;28;20026;-66
2022/10/28 08:45:22;;;;;;;23.05;6.72;;;;;;;17.46;100.00;101507.09;5047167;28;20056;-65
2022/10/28 08:47:57;;;;;;;22.15;6.60;;;;;;;17.62;100.00;101498.84;5044215;28;20025;-65
2022/10/28 08:50:26;;;;;;;23.38;6.60;;;;;;;17.86;100.00;101494.94;5044791;28;20544;-65
2022/10/28 08:53:20;;;;;;;22.23;6.22;;;;;;;18.08;100.00;101496.38;5050426;28;20041;-66
2022/10/28 08:55:49;;;;;;;22.65;6.60;;;;;;;18.26;100.00;101497.88;5043347;28;20029;-65
2022/10/28 08:58:25;;;;;;;23.10;6.40;;;;;;;18.43;100.00;101499.34;5043691;28;20079;-67
2022/10/28 09:00:53;;;;;;;24.63;6.88;;;;;;;18.59;100.00;101513.34;5040553;28;20025;-64
2022/10/28 09:03:29;;;;;;;23.13;6.32;;;;;;;18.77;100.00;101507.63;5050372;28;20044;-64
2022/10/28 09:06:04;;;;;;;23.60;6.18;;;;;;;18.90;100.00;101516.38;5043740;28;20124;-65
2022/10/28 09:08:50;;;;;;;21.98;6.00;;;;;;;19.03;100.00;101503.56;5044436;28;20100;-65
2022/10/28 09:11:34;;;;;;;23.42;6.18;;;;;;;19.08;100.00;101517.78;5046613;28;20025;-65
2022/10/28 09:14:37;;;;;;;24.85;6.20;;;;;;;19.17;100.00;101520.25;5044791;28;20033;-65
2022/10/28 09:17:18;;;;;;;23.15;6.10;;;;;;;19.23;100.00;101521.94;5045502;28;20037;-64
2022/10/28 09:19:56;;;;;;;22.02;5.95;;;;;;;19.51;100.00;101526.69;5048099;28;20084;-64
2022/10/28 09:22:33;;;;;;;23.20;6.25;;;;;;;19.72;100.00;101521.75;5043004;28;20400;-64
2022/10/28 09:25:03;;;;;;;22.80;6.00;;;;;;;19.81;100.00;101521.59;5044049;28;20033;-63
2022/10/28 09:28:06;;;;;;;24.05;5.80;;;;;;;19.97;100.00;101514.06;5050252;28;20025;-65
2022/10/28 09:31:10;;;;;;;22.35;5.95;;;;;;;19.95;100.00;101515.88;5042673;28;20110;-63
2022/10/28 09:34:17;;;;;;;21.05;5.75;;;;;;;19.81;100.00;101513.53;5043444;28;20049;-62
2022/10/28 09:36:49;;;;;;;21.92;5.88;;;;;;;19.73;100.00;101527.09;4964338;28;20039;-63
2022/10/28 09:39:24;;;;;;;;;;;;;;;19.75;100.00;101522.56;4957668;28;20113;-63
2022/10/28 09:41:52;;;;;;;21.58;5.82;;;;;;;19.63;100.00;101531.78;4956788;28;19949;-63
2022/10/28 09:44:29;;;;;;;23.23;5.80;;;;;;;19.74;100.00;101531.53;4957266;28;20512;-62
2022/10/28 09:46:59;;;;;;;22.35;5.80;;;;;;;20.01;100.00;101527.34;4965640;28;20035;-63
2022/10/28 09:49:29;;;;;;;23.17;6.00;;;;;;;20.20;100.00;101527.78;4961715;28;20049;-63
2022/10/28 09:52:10;;;;;;;23.67;5.90;;;;;;;20.37;100.00;101537.19;4961369;28;20117;-63
2022/10/28 09:54:45;;;;;;;19.85;5.47;;;;;;;20.65;100.00;101540.06;4959407;28;20051;-63
2022/10/28 09:57:10;;;;;;;23.75;5.70;;;;;;;21.07;100.00;101530.88;4959182;28;20058;-63
2022/10/28 09:59:36;;;;;;;20.27;5.50;;;;;;;21.15;100.00;101534.22;4958507;28;20059;-63
2022/10/28 10:02:03;;;;;;;22.08;5.60;;;;;;;21.30;100.00;101534.72;4961061;28;20043;-64
2022/10/28 10:04:34;;;;;;;21.52;5.75;;;;;;;21.58;100.00;101532.97;4954156;28;20062;-64
2022/10/28 10:07:06;;;;;;;21.98;5.75;;;;;;;21.97;100.00;101526.38;4983058;28;20439;-64
2022/10/28 10:09:33;;;;;;;;;;;;;;;22.14;100.00;101530.34;5045754;28;20029;-63
2022/10/28 10:12:06;;;;;;;22.42;5.43;;;;;;;22.40;100.00;101529.50;5049923;28;20275;-64
2022/10/28 10:14:44;;;;;;;22.45;5.60;;;;;;;22.48;100.00;101529.22;5046137;28;20118;-64
2022/10/28 10:17:20;;;;;;;20.23;5.35;;;;;;;22.86;100.00;101530.53;5045474;28;20026;-63
2022/10/28 10:19:59;;;;;;;20.67;5.50;;;;;;;23.06;100.00;101532.50;5043778;28;20029;-64
2022/10/28 10:22:30;;;;;;;23.60;5.68;;;;;;;22.99;100.00;101525.56;5039774;28;20033;-64
2022/10/28 10:24:55;;;;;;;22.35;5.45;;;;;;;23.21;100.00;101531.09;5039867;28;20033;-67
2022/10/28 10:27:23;;;;;;;20.67;5.47;;;;;;;23.74;100.00;101532.63;5046521;28;20052;-66
2022/10/28 10:29:51;;;;;;;23.52;5.47;;;;;;;23.93;100.00;101524.69;5043598;28;20021;-67
2022/10/28 10:32:23;;;;;;;21.98;6.00;;;;;;;23.86;100.00;101512.41;5045575;28;20025;-67
2022/10/28 10:35:02;;;;;;;20.35;5.57;;;;;;;23.79;100.00;101522.50;5043487;28;20072;-65
2022/10/28 10:37:32;;;;;;;22.60;5.25;;;;;;;24.00;100.00;101520.81;5039912;28;20136;-66
2022/10/28 10:40:22;;;;;;;22.38;5.30;;;;;;;24.09;100.00;101508.75;5046478;28;20076;-66
2022/10/28 10:42:48;;;;;;;22.85;5.30;;;;;;;24.45;100.00;101512.63;5045605;28;20100;-67
2022/10/28 10:45:13;;;;;;;21.88;5.05;;;;;;;24.61;100.00;101504.75;5043896;28;20021;-67
2022/10/28 10:47:39;;;;;;;21.30;5.40;;;;;;;24.98;100.00;101504.00;5044621;28;20034;-67
2022/10/28 10:50:22;;;;;;;21.75;5.35;;;;;;;25.26;100.00;101480.19;5042984;28;20021;-67
2022/10/28 10:52:52;;;;;;;22.35;5.30;;;;;;;24.84;100.00;101501.03;5035048;28;20045;-65
2022/10/28 10:55:30;;;;;;;22.92;5.32;;;;;;;24.61;100.00;101502.97;5034269;28;20079;-64
2022/10/28 10:57:56;;;;;;;21.75;5.25;;;;;;;24.55;100.00;101489.66;5036655;28;20029;-64
2022/10/28 11:00:27;;;;;;;22.02;5.18;;;;;;;25.32;100.00;101507.84;5032993;28;20072;-64
2022/10/28 11:02:53;;;;;;;20.47;4.77;;;;;;;25.49;97.39;101509.75;5038611;28;20052;-64
2022/10/28 11:05:21;;;;;;;22.30;5.22;;;;;;;25.61;96.98;101515.53;5035469;28;20025;-63
2022/10/28 11:07:49;;;;;;;22.50;5.05;;;;;;;26.08;81.12;101509.63;5037009;28;20468;-66
2022/10/28 11:10:30;;;;;;;20.10;4.82;;;;;;;25.60;78.22;101513.78;5034329;28;20022;-68
2022/10/28 11:12:59;;;;;;;24.85;5.32;;;;;;;25.52;77.84;101512.31;5035145;28;20075;-65
2022/10/28 11:15:28;;;;;;;21.25;4.65;;;;;;;25.15;78.55;101511.34;5035300;28;20075;-67
2022/10/28 11:18:10;;;;;;;22.95;5.10;;;;;;;24.67;79.95;101504.53;5035368;28;20017;-66
2022/10/28 11:21:03;;;;;;;21.35;4.68;;;;;;;24.26;81.32;101483.72;5031323;28;20029;-62
2022/10/28 11:23:49;;;;;;;20.35;5.03;;;;;;;23.53;84.01;101476.81;5032539;28;20103;-74